sensor_id;sensor_type;location;lat;lon;timestamp;pressure;altitude;pressure_sealevel;temperature;humidity
45071;BME280;30836;48.906;9.140;2023-07-16T00:00:22;984.46;;;25.24;59.60
45071;BME280;30836;48.906;9.140;2023-07-16T00:01:23;984.46;;;25.25;59.56
45071;BME280;30836;48.906;9.140;2023-07-16T00:02:23;984.46;;;25.22;59.88
45071;BME280;30836;48.906;9.140;2023-07-16T00:03:24;984.48;;;25.11;60.17
45071;BME280;30836;48.906;9.140;2023-07-16T00:04:24;984.50;;;25.07;60.06
45071;BME280;30836;48.906;9.140;2023-07-16T00:05:24;984.52;;;25.08;59.91
45071;BME280;30836;48.906;9.140;2023-07-16T00:06:25;984.52;;;25.11;59.64
45071;BME280;30836;48.906;9.140;2023-07-16T00:07:25;984.46;;;25.16;59.42
45071;BME280;30836;48.906;9.140;2023-07-16T00:08:26;984.48;;;25.21;59.39
45071;BME280;30836;48.906;9.140;2023-07-16T00:09:26;984.50;;;25.29;59.02
45071;BME280;30836;48.906;9.140;2023-07-16T00:10:27;984.54;;;25.41;58.70
45071;BME280;30836;48.906;9.140;2023-07-16T00:11:27;984.59;;;25.53;58.55
45071;BME280;30836;48.906;9.140;2023-07-16T00:12:28;984.74;;;25.63;58.33
45071;BME280;30836;48.906;9.140;2023-07-16T00:13:28;984.74;;;25.72;57.97
45071;BME280;30836;48.906;9.140;2023-07-16T00:14:29;984.72;;;25.76;58.21
45071;BME280;30836;48.906;9.140;2023-07-16T00:15:29;984.76;;;25.74;58.28
45071;BME280;30836;48.906;9.140;2023-07-16T00:16:30;984.76;;;25.72;58.10
45071;BME280;30836;48.906;9.140;2023-07-16T00:17:31;984.76;;;25.74;57.89
45071;BME280;30836;48.906;9.140;2023-07-16T00:18:33;984.81;;;25.78;57.66
45071;BME280;30836;48.906;9.140;2023-07-16T00:19:34;984.81;;;25.79;57.73
45071;BME280;30836;48.906;9.140;2023-07-16T00:20:34;984.83;;;25.81;57.61
45071;BME280;30836;48.906;9.140;2023-07-16T00:21:34;984.81;;;25.86;57.48
45071;BME280;30836;48.906;9.140;2023-07-16T00:22:35;984.81;;;25.90;57.57
45071;BME280;30836;48.906;9.140;2023-07-16T00:23:36;984.81;;;25.92;57.42
45071;BME280;30836;48.906;9.140;2023-07-16T00:24:36;984.85;;;25.96;57.40
45071;BME280;30836;48.906;9.140;2023-07-16T00:25:37;984.83;;;26.02;57.08
45071;BME280;30836;48.906;9.140;2023-07-16T00:26:37;984.83;;;26.04;57.29
45071;BME280;30836;48.906;9.140;2023-07-16T00:27:38;984.81;;;26.00;57.24
45071;BME280;30836;48.906;9.140;2023-07-16T00:28:38;984.77;;;25.92;57.48
45071;BME280;30836;48.906;9.140;2023-07-16T00:29:39;984.74;;;25.83;57.20
45071;BME280;30836;48.906;9.140;2023-07-16T00:30:39;984.70;;;25.79;57.00
45071;BME280;30836;48.906;9.140;2023-07-16T00:31:40;984.61;;;25.77;57.13
45071;BME280;30836;48.906;9.140;2023-07-16T00:32:40;984.70;;;25.69;57.00
45071;BME280;30836;48.906;9.140;2023-07-16T00:33:41;984.74;;;25.58;57.35
45071;BME280;30836;48.906;9.140;2023-07-16T00:34:41;984.72;;;25.50;57.49
45071;BME280;30836;48.906;9.140;2023-07-16T00:36:48;984.72;;;25.46;57.54
45071;BME280;30836;48.906;9.140;2023-07-16T00:37:48;984.76;;;25.42;57.24
45071;BME280;30836;48.906;9.140;2023-07-16T00:38:48;984.77;;;25.43;57.11
45071;BME280;30836;48.906;9.140;2023-07-16T00:39:49;984.76;;;25.47;56.91
45071;BME280;30836;48.906;9.140;2023-07-16T00:40:49;984.79;;;25.49;56.82
45071;BME280;30836;48.906;9.140;2023-07-16T00:41:50;984.76;;;25.50;56.73
45071;BME280;30836;48.906;9.140;2023-07-16T00:42:50;984.79;;;25.48;56.74
45071;BME280;30836;48.906;9.140;2023-07-16T00:43:51;984.76;;;25.45;56.69
45071;BME280;30836;48.906;9.140;2023-07-16T00:44:51;984.74;;;25.47;56.70
45071;BME280;30836;48.906;9.140;2023-07-16T00:45:51;984.76;;;25.49;56.60
45071;BME280;30836;48.906;9.140;2023-07-16T00:46:52;984.76;;;25.51;56.57
45071;BME280;30836;48.906;9.140;2023-07-16T00:47:53;984.76;;;25.52;56.73
45071;BME280;30836;48.906;9.140;2023-07-16T00:48:53;984.81;;;25.46;56.54
45071;BME280;30836;48.906;9.140;2023-07-16T00:49:54;984.79;;;25.36;56.87
45071;BME280;30836;48.906;9.140;2023-07-16T00:50:55;984.85;;;25.33;56.83
45071;BME280;30836;48.906;9.140;2023-07-16T00:51:56;984.83;;;25.36;56.49
45071;BME280;30836;48.906;9.140;2023-07-16T00:52:58;984.76;;;25.43;56.31
45071;BME280;30836;48.906;9.140;2023-07-16T00:53:59;984.70;;;25.53;56.14
45071;BME280;30836;48.906;9.140;2023-07-16T00:55:01;984.59;;;25.63;55.82
45071;BME280;30836;48.906;9.140;2023-07-16T00:56:02;984.54;;;25.71;55.66
45071;BME280;30836;48.906;9.140;2023-07-16T00:57:02;984.50;;;25.79;55.56
45071;BME280;30836;48.906;9.140;2023-07-16T00:58:04;984.52;;;25.86;55.10
45071;BME280;30836;48.906;9.140;2023-07-16T00:59:06;984.55;;;25.95;55.20
45071;BME280;30836;48.906;9.140;2023-07-16T01:00:07;984.70;;;26.10;54.67
45071;BME280;30836;48.906;9.140;2023-07-16T01:01:08;984.72;;;26.31;53.64
45071;BME280;30836;48.906;9.140;2023-07-16T01:02:08;984.72;;;26.48;53.10
45071;BME280;30836;48.906;9.140;2023-07-16T01:03:09;984.72;;;26.60;52.78
45071;BME280;30836;48.906;9.140;2023-07-16T01:04:13;984.74;;;26.72;52.32
45071;BME280;30836;48.906;9.140;2023-07-16T01:05:14;984.87;;;26.80;51.99
45071;BME280;30836;48.906;9.140;2023-07-16T01:06:25;984.95;;;26.83;52.11
45071;BME280;30836;48.906;9.140;2023-07-16T01:07:25;984.99;;;26.87;51.98
45071;BME280;30836;48.906;9.140;2023-07-16T01:09:41;985.13;;;26.87;51.93
45071;BME280;30836;48.906;9.140;2023-07-16T01:10:42;985.19;;;26.88;51.85
45071;BME280;30836;48.906;9.140;2023-07-16T01:11:44;985.21;;;26.89;51.90
45071;BME280;30836;48.906;9.140;2023-07-16T01:12:45;985.21;;;26.91;51.76
45071;BME280;30836;48.906;9.140;2023-07-16T01:13:46;985.23;;;26.88;52.03
45071;BME280;30836;48.906;9.140;2023-07-16T01:14:47;985.21;;;26.79;52.20
45071;BME280;30836;48.906;9.140;2023-07-16T01:15:48;985.23;;;26.73;52.15
45071;BME280;30836;48.906;9.140;2023-07-16T01:16:48;985.25;;;26.68;52.27
45071;BME280;30836;48.906;9.140;2023-07-16T01:17:49;985.25;;;26.66;52.35
45071;BME280;30836;48.906;9.140;2023-07-16T01:18:50;985.23;;;26.63;52.53
45071;BME280;30836;48.906;9.140;2023-07-16T01:19:51;985.21;;;26.60;52.64
45071;BME280;30836;48.906;9.140;2023-07-16T01:20:51;985.23;;;26.64;52.19
45071;BME280;30836;48.906;9.140;2023-07-16T01:24:13;985.17;;;26.85;51.84
45071;BME280;30836;48.906;9.140;2023-07-16T01:28:54;985.21;;;27.13;51.21
45071;BME280;30836;48.906;9.140;2023-07-16T01:30:17;985.21;;;27.20;51.34
45071;BME280;30836;48.906;9.140;2023-07-16T01:31:19;985.23;;;27.13;51.64
45071;BME280;30836;48.906;9.140;2023-07-16T01:32:20;985.17;;;27.03;51.85
45071;BME280;30836;48.906;9.140;2023-07-16T01:33:22;985.17;;;26.92;52.23
45071;BME280;30836;48.906;9.140;2023-07-16T01:34:24;985.27;;;26.78;52.57
45071;BME280;30836;48.906;9.140;2023-07-16T01:35:27;985.31;;;26.66;52.76
45071;BME280;30836;48.906;9.140;2023-07-16T01:36:27;985.38;;;26.58;52.84
45071;BME280;30836;48.906;9.140;2023-07-16T01:37:29;985.42;;;26.54;52.85
45071;BME280;30836;48.906;9.140;2023-07-16T01:38:29;985.40;;;26.57;52.73
45071;BME280;30836;48.906;9.140;2023-07-16T01:39:31;985.40;;;26.65;52.35
45071;BME280;30836;48.906;9.140;2023-07-16T01:40:32;985.42;;;26.75;51.92
45071;BME280;30836;48.906;9.140;2023-07-16T01:41:32;985.42;;;26.85;51.74
45071;BME280;30836;48.906;9.140;2023-07-16T01:42:33;985.48;;;26.93;51.62
45071;BME280;30836;48.906;9.140;2023-07-16T01:43:33;985.48;;;26.97;51.40
45071;BME280;30836;48.906;9.140;2023-07-16T01:44:33;985.50;;;26.96;51.35
45071;BME280;30836;48.906;9.140;2023-07-16T01:45:34;985.54;;;26.98;50.98
45071;BME280;30836;48.906;9.140;2023-07-16T01:46:34;985.54;;;26.96;50.62
45071;BME280;30836;48.906;9.140;2023-07-16T01:48:40;985.58;;;26.94;50.45
45071;BME280;30836;48.906;9.140;2023-07-16T01:49:41;985.54;;;26.98;50.34
45071;BME280;30836;48.906;9.140;2023-07-16T01:50:41;985.46;;;26.94;50.32
45071;BME280;30836;48.906;9.140;2023-07-16T01:51:42;985.38;;;26.83;50.51
45071;BME280;30836;48.906;9.140;2023-07-16T01:52:42;985.34;;;26.72;50.77
45071;BME280;30836;48.906;9.140;2023-07-16T01:53:43;985.31;;;26.62;50.85
45071;BME280;30836;48.906;9.140;2023-07-16T01:54:43;985.29;;;26.44;49.82
45071;BME280;30836;48.906;9.140;2023-07-16T01:55:44;985.23;;;26.19;49.50
45071;BME280;30836;48.906;9.140;2023-07-16T01:56:44;985.21;;;26.03;49.49
45071;BME280;30836;48.906;9.140;2023-07-16T01:57:45;985.21;;;25.89;50.05
45071;BME280;30836;48.906;9.140;2023-07-16T01:58:45;985.23;;;25.73;50.02
45071;BME280;30836;48.906;9.140;2023-07-16T01:59:46;985.15;;;25.64;49.46
45071;BME280;30836;48.906;9.140;2023-07-16T02:00:47;985.15;;;25.57;49.72
45071;BME280;30836;48.906;9.140;2023-07-16T02:01:47;985.25;;;25.54;49.78
45071;BME280;30836;48.906;9.140;2023-07-16T02:02:48;985.32;;;25.52;49.85
45071;BME280;30836;48.906;9.140;2023-07-16T02:03:48;985.50;;;25.47;49.92
45071;BME280;30836;48.906;9.140;2023-07-16T02:04:48;985.58;;;25.35;50.18
45071;BME280;30836;48.906;9.140;2023-07-16T02:05:49;985.56;;;25.18;50.59
45071;BME280;30836;48.906;9.140;2023-07-16T02:06:50;985.56;;;25.12;50.17
45071;BME280;30836;48.906;9.140;2023-07-16T02:07:50;985.54;;;25.22;49.71
45071;BME280;30836;48.906;9.140;2023-07-16T02:08:51;985.58;;;25.32;49.79
45071;BME280;30836;48.906;9.140;2023-07-16T02:09:51;985.60;;;25.33;49.93
45071;BME280;30836;48.906;9.140;2023-07-16T02:10:52;985.64;;;25.38;49.70
45071;BME280;30836;48.906;9.140;2023-07-16T02:11:52;985.62;;;25.54;49.47
45071;BME280;30836;48.906;9.140;2023-07-16T02:12:52;985.60;;;25.70;49.12
45071;BME280;30836;48.906;9.140;2023-07-16T02:13:53;985.58;;;25.87;48.75
45071;BME280;30836;48.906;9.140;2023-07-16T02:14:54;985.56;;;26.02;48.35
45071;BME280;30836;48.906;9.140;2023-07-16T02:15:54;985.56;;;26.15;48.54
45071;BME280;30836;48.906;9.140;2023-07-16T02:16:55;985.54;;;26.28;48.52
45071;BME280;30836;48.906;9.140;2023-07-16T02:17:55;985.48;;;26.42;48.13
45071;BME280;30836;48.906;9.140;2023-07-16T02:18:55;985.50;;;26.52;48.08
45071;BME280;30836;48.906;9.140;2023-07-16T02:19:56;985.54;;;26.60;47.84
45071;BME280;30836;48.906;9.140;2023-07-16T02:20:56;985.52;;;26.68;47.62
45071;BME280;30836;48.906;9.140;2023-07-16T02:21:57;985.52;;;26.75;47.55
45071;BME280;30836;48.906;9.140;2023-07-16T02:22:57;985.54;;;26.80;47.48
45071;BME280;30836;48.906;9.140;2023-07-16T02:23:58;985.54;;;26.86;47.50
45071;BME280;30836;48.906;9.140;2023-07-16T02:24:58;985.56;;;26.92;47.42
45071;BME280;30836;48.906;9.140;2023-07-16T02:25:59;985.52;;;26.96;47.29
45071;BME280;30836;48.906;9.140;2023-07-16T02:26:59;985.54;;;26.98;47.01
45071;BME280;30836;48.906;9.140;2023-07-16T02:28:00;985.54;;;26.99;46.82
45071;BME280;30836;48.906;9.140;2023-07-16T02:29:00;985.54;;;27.03;46.83
45071;BME280;30836;48.906;9.140;2023-07-16T02:30:00;985.50;;;27.06;46.51
45071;BME280;30836;48.906;9.140;2023-07-16T02:31:02;985.46;;;27.08;46.49
45071;BME280;30836;48.906;9.140;2023-07-16T02:32:03;985.40;;;27.11;46.38
45071;BME280;30836;48.906;9.140;2023-07-16T02:33:03;985.44;;;27.13;46.32
45071;BME280;30836;48.906;9.140;2023-07-16T02:34:04;985.50;;;27.13;46.44
45071;BME280;30836;48.906;9.140;2023-07-16T02:35:04;985.62;;;27.14;46.51
45071;BME280;30836;48.906;9.140;2023-07-16T02:36:05;985.68;;;27.13;46.41
45071;BME280;30836;48.906;9.140;2023-07-16T02:37:06;985.66;;;27.07;46.64
45071;BME280;30836;48.906;9.140;2023-07-16T02:38:06;985.64;;;27.01;46.68
45071;BME280;30836;48.906;9.140;2023-07-16T02:39:06;985.60;;;26.99;46.91
45071;BME280;30836;48.906;9.140;2023-07-16T02:40:07;985.58;;;26.99;47.13
45071;BME280;30836;48.906;9.140;2023-07-16T02:41:08;985.60;;;26.99;46.99
45071;BME280;30836;48.906;9.140;2023-07-16T02:42:08;985.64;;;27.00;46.83
45071;BME280;30836;48.906;9.140;2023-07-16T02:43:09;985.68;;;27.00;46.97
45071;BME280;30836;48.906;9.140;2023-07-16T02:44:09;985.68;;;26.99;47.15
45071;BME280;30836;48.906;9.140;2023-07-16T02:45:09;985.64;;;26.98;47.25
45071;BME280;30836;48.906;9.140;2023-07-16T02:46:10;985.64;;;26.96;47.10
45071;BME280;30836;48.906;9.140;2023-07-16T02:47:11;985.64;;;26.93;47.04
45071;BME280;30836;48.906;9.140;2023-07-16T02:48:11;985.62;;;26.93;46.97
45071;BME280;30836;48.906;9.140;2023-07-16T02:49:12;985.64;;;26.94;47.25
45071;BME280;30836;48.906;9.140;2023-07-16T02:50:12;985.64;;;26.93;47.08
45071;BME280;30836;48.906;9.140;2023-07-16T02:51:12;985.60;;;26.91;46.98
45071;BME280;30836;48.906;9.140;2023-07-16T02:52:13;985.58;;;26.86;47.26
45071;BME280;30836;48.906;9.140;2023-07-16T02:53:13;985.52;;;26.80;47.03
45071;BME280;30836;48.906;9.140;2023-07-16T02:54:14;985.50;;;26.77;46.81
45071;BME280;30836;48.906;9.140;2023-07-16T02:55:14;985.50;;;26.75;46.25
45071;BME280;30836;48.906;9.140;2023-07-16T02:56:15;985.50;;;26.74;46.53
45071;BME280;30836;48.906;9.140;2023-07-16T02:57:15;985.50;;;26.75;46.53
45071;BME280;30836;48.906;9.140;2023-07-16T02:58:15;985.56;;;26.77;46.52
45071;BME280;30836;48.906;9.140;2023-07-16T02:59:16;985.58;;;26.75;46.21
45071;BME280;30836;48.906;9.140;2023-07-16T03:00:16;985.56;;;26.71;46.20
45071;BME280;30836;48.906;9.140;2023-07-16T03:01:17;985.56;;;26.69;46.11
45071;BME280;30836;48.906;9.140;2023-07-16T03:02:17;985.48;;;26.67;46.14
45071;BME280;30836;48.906;9.140;2023-07-16T03:03:18;985.46;;;26.61;46.45
45071;BME280;30836;48.906;9.140;2023-07-16T03:04:18;985.46;;;26.55;46.45
45071;BME280;30836;48.906;9.140;2023-07-16T03:05:18;985.42;;;26.51;46.63
45071;BME280;30836;48.906;9.140;2023-07-16T03:06:19;985.42;;;26.47;46.51
45071;BME280;30836;48.906;9.140;2023-07-16T03:07:19;985.44;;;26.42;46.49
45071;BME280;30836;48.906;9.140;2023-07-16T03:08:20;985.46;;;26.32;46.17
45071;BME280;30836;48.906;9.140;2023-07-16T03:09:20;985.48;;;26.23;46.47
45071;BME280;30836;48.906;9.140;2023-07-16T03:10:21;985.48;;;26.17;46.21
45071;BME280;30836;48.906;9.140;2023-07-16T03:11:22;985.46;;;26.14;46.34
45071;BME280;30836;48.906;9.140;2023-07-16T03:12:23;985.48;;;26.16;46.17
45071;BME280;30836;48.906;9.140;2023-07-16T03:13:23;985.52;;;26.18;46.27
45071;BME280;30836;48.906;9.140;2023-07-16T03:14:23;985.58;;;26.20;46.39
45071;BME280;30836;48.906;9.140;2023-07-16T03:15:24;985.66;;;26.24;46.53
45071;BME280;30836;48.906;9.140;2023-07-16T03:16:24;985.70;;;26.25;46.52
45071;BME280;30836;48.906;9.140;2023-07-16T03:17:25;985.76;;;26.23;46.43
45071;BME280;30836;48.906;9.140;2023-07-16T03:18:28;985.80;;;26.24;46.31
45071;BME280;30836;48.906;9.140;2023-07-16T03:19:30;985.83;;;26.26;46.54
45071;BME280;30836;48.906;9.140;2023-07-16T03:20:30;985.83;;;26.26;46.46
45071;BME280;30836;48.906;9.140;2023-07-16T03:21:30;985.83;;;26.27;46.42
45071;BME280;30836;48.906;9.140;2023-07-16T03:22:31;985.80;;;26.25;46.65
45071;BME280;30836;48.906;9.140;2023-07-16T03:23:31;985.82;;;26.21;46.75
45071;BME280;30836;48.906;9.140;2023-07-16T03:24:32;985.80;;;26.21;46.59
45071;BME280;30836;48.906;9.140;2023-07-16T03:25:32;985.83;;;26.22;46.85
45071;BME280;30836;48.906;9.140;2023-07-16T03:26:33;985.91;;;26.22;46.77
45071;BME280;30836;48.906;9.140;2023-07-16T03:27:33;985.91;;;26.22;46.94
45071;BME280;30836;48.906;9.140;2023-07-16T03:28:33;985.93;;;26.24;46.76
45071;BME280;30836;48.906;9.140;2023-07-16T03:29:34;985.95;;;26.29;46.70
45071;BME280;30836;48.906;9.140;2023-07-16T03:30:34;985.99;;;26.34;46.73
45071;BME280;30836;48.906;9.140;2023-07-16T03:31:35;985.99;;;26.38;46.90
45071;BME280;30836;48.906;9.140;2023-07-16T03:32:36;985.97;;;26.38;46.90
45071;BME280;30836;48.906;9.140;2023-07-16T03:33:37;985.95;;;26.38;46.27
45071;BME280;30836;48.906;9.140;2023-07-16T03:34:37;985.95;;;26.34;45.86
45071;BME280;30836;48.906;9.140;2023-07-16T03:35:37;985.95;;;26.29;46.45
45071;BME280;30836;48.906;9.140;2023-07-16T03:36:38;985.97;;;26.21;46.88
45071;BME280;30836;48.906;9.140;2023-07-16T03:37:38;985.93;;;26.06;47.08
45071;BME280;30836;48.906;9.140;2023-07-16T03:38:39;985.95;;;25.90;47.20
45071;BME280;30836;48.906;9.140;2023-07-16T03:39:39;985.93;;;25.74;47.63
45071;BME280;30836;48.906;9.140;2023-07-16T03:40:42;985.99;;;25.58;48.08
45071;BME280;30836;48.906;9.140;2023-07-16T03:41:46;986.09;;;25.48;48.52
45071;BME280;30836;48.906;9.140;2023-07-16T03:42:46;986.17;;;25.42;48.42
45071;BME280;30836;48.906;9.140;2023-07-16T03:43:46;986.17;;;25.36;48.50
45071;BME280;30836;48.906;9.140;2023-07-16T03:44:47;986.17;;;25.26;48.66
45071;BME280;30836;48.906;9.140;2023-07-16T03:45:47;986.13;;;25.09;48.49
45071;BME280;30836;48.906;9.140;2023-07-16T03:46:49;986.15;;;24.92;48.69
45071;BME280;30836;48.906;9.140;2023-07-16T03:47:49;986.09;;;24.84;48.76
45071;BME280;30836;48.906;9.140;2023-07-16T03:48:50;986.13;;;24.83;48.84
45071;BME280;30836;48.906;9.140;2023-07-16T03:49:53;986.11;;;24.84;48.73
45071;BME280;30836;48.906;9.140;2023-07-16T03:50:54;986.15;;;24.86;48.55
45071;BME280;30836;48.906;9.140;2023-07-16T03:51:54;986.15;;;24.90;48.72
45071;BME280;30836;48.906;9.140;2023-07-16T03:52:55;986.15;;;24.96;48.78
45071;BME280;30836;48.906;9.140;2023-07-16T03:53:55;986.23;;;25.02;48.81
45071;BME280;30836;48.906;9.140;2023-07-16T03:54:56;986.27;;;25.09;48.63
45071;BME280;30836;48.906;9.140;2023-07-16T03:55:56;986.36;;;25.15;48.48
45071;BME280;30836;48.906;9.140;2023-07-16T03:56:57;986.44;;;25.19;48.51
45071;BME280;30836;48.906;9.140;2023-07-16T03:57:57;986.48;;;25.22;48.34
45071;BME280;30836;48.906;9.140;2023-07-16T03:58:58;986.52;;;25.23;48.17
45071;BME280;30836;48.906;9.140;2023-07-16T03:59:58;986.50;;;25.23;48.22
45071;BME280;30836;48.906;9.140;2023-07-16T04:00:59;986.54;;;25.20;48.12
45071;BME280;30836;48.906;9.140;2023-07-16T04:01:59;986.60;;;25.16;48.23
45071;BME280;30836;48.906;9.140;2023-07-16T04:03:00;986.62;;;25.16;47.90
45071;BME280;30836;48.906;9.140;2023-07-16T04:04:00;986.68;;;25.17;48.15
45071;BME280;30836;48.906;9.140;2023-07-16T04:05:01;986.72;;;25.18;48.40
45071;BME280;30836;48.906;9.140;2023-07-16T04:06:03;986.74;;;25.19;48.75
45071;BME280;30836;48.906;9.140;2023-07-16T04:07:04;986.82;;;25.19;48.67
45071;BME280;30836;48.906;9.140;2023-07-16T04:08:05;986.84;;;25.21;48.07
45071;BME280;30836;48.906;9.140;2023-07-16T04:09:05;986.87;;;25.29;47.76
45071;BME280;30836;48.906;9.140;2023-07-16T04:10:06;986.91;;;25.44;47.10
45071;BME280;30836;48.906;9.140;2023-07-16T04:11:07;986.91;;;25.56;47.20
45071;BME280;30836;48.906;9.140;2023-07-16T04:12:07;986.89;;;25.63;47.01
45071;BME280;30836;48.906;9.140;2023-07-16T04:13:08;986.93;;;25.70;46.97
45071;BME280;30836;48.906;9.140;2023-07-16T04:14:08;986.93;;;25.77;46.81
45071;BME280;30836;48.906;9.140;2023-07-16T04:15:09;986.89;;;25.86;46.66
45071;BME280;30836;48.906;9.140;2023-07-16T04:16:09;986.91;;;25.94;46.46
45071;BME280;30836;48.906;9.140;2023-07-16T04:17:10;986.91;;;25.98;46.57
45071;BME280;30836;48.906;9.140;2023-07-16T04:18:10;986.87;;;26.00;46.24
45071;BME280;30836;48.906;9.140;2023-07-16T04:19:10;986.85;;;26.04;46.56
45071;BME280;30836;48.906;9.140;2023-07-16T04:20:11;986.85;;;26.09;46.68
45071;BME280;30836;48.906;9.140;2023-07-16T04:21:11;986.85;;;26.15;46.36
45071;BME280;30836;48.906;9.140;2023-07-16T04:22:12;986.85;;;26.23;46.38
45071;BME280;30836;48.906;9.140;2023-07-16T04:23:12;986.84;;;26.29;46.29
45071;BME280;30836;48.906;9.140;2023-07-16T04:24:13;986.84;;;26.35;46.28
45071;BME280;30836;48.906;9.140;2023-07-16T04:25:13;986.82;;;26.39;46.04
45071;BME280;30836;48.906;9.140;2023-07-16T04:26:14;986.78;;;26.43;45.91
45071;BME280;30836;48.906;9.140;2023-07-16T04:27:14;986.74;;;26.47;45.84
45071;BME280;30836;48.906;9.140;2023-07-16T04:28:14;986.74;;;26.52;45.54
45071;BME280;30836;48.906;9.140;2023-07-16T04:29:15;986.72;;;26.55;45.72
45071;BME280;30836;48.906;9.140;2023-07-16T04:30:15;986.74;;;26.57;45.63
45071;BME280;30836;48.906;9.140;2023-07-16T04:31:16;986.70;;;26.60;45.62
45071;BME280;30836;48.906;9.140;2023-07-16T04:32:17;986.76;;;26.63;45.65
45071;BME280;30836;48.906;9.140;2023-07-16T04:33:18;986.74;;;26.67;45.58
45071;BME280;30836;48.906;9.140;2023-07-16T04:34:18;986.74;;;26.73;45.44
45071;BME280;30836;48.906;9.140;2023-07-16T04:35:18;986.72;;;26.78;45.65
45071;BME280;30836;48.906;9.140;2023-07-16T04:36:19;986.66;;;26.81;45.86
45071;BME280;30836;48.906;9.140;2023-07-16T04:37:19;986.64;;;26.84;45.33
45071;BME280;30836;48.906;9.140;2023-07-16T04:38:20;986.66;;;26.85;45.14
45071;BME280;30836;48.906;9.140;2023-07-16T04:39:20;986.70;;;26.82;45.35
45071;BME280;30836;48.906;9.140;2023-07-16T04:40:20;986.80;;;26.71;45.82
45071;BME280;30836;48.906;9.140;2023-07-16T04:41:21;986.85;;;26.59;45.96
45071;BME280;30836;48.906;9.140;2023-07-16T04:42:21;986.91;;;26.47;46.08
45071;BME280;30836;48.906;9.140;2023-07-16T04:43:22;986.91;;;26.35;46.17
45071;BME280;30836;48.906;9.140;2023-07-16T04:44:22;986.91;;;26.22;46.42
45071;BME280;30836;48.906;9.140;2023-07-16T04:45:23;986.91;;;26.10;46.81
45071;BME280;30836;48.906;9.140;2023-07-16T04:46:23;986.91;;;25.99;46.97
45071;BME280;30836;48.906;9.140;2023-07-16T04:47:24;986.95;;;25.83;46.90
45071;BME280;30836;48.906;9.140;2023-07-16T04:48:25;986.97;;;25.62;47.18
45071;BME280;30836;48.906;9.140;2023-07-16T04:49:26;986.97;;;25.50;47.34
45071;BME280;30836;48.906;9.140;2023-07-16T04:50:26;987.01;;;25.41;47.27
45071;BME280;30836;48.906;9.140;2023-07-16T04:51:27;987.01;;;25.30;47.49
45071;BME280;30836;48.906;9.140;2023-07-16T04:52:27;987.07;;;25.21;47.61
45071;BME280;30836;48.906;9.140;2023-07-16T04:53:27;987.07;;;25.15;47.82
45071;BME280;30836;48.906;9.140;2023-07-16T04:54:28;987.11;;;25.07;47.96
45071;BME280;30836;48.906;9.140;2023-07-16T04:55:28;987.11;;;24.99;48.14
45071;BME280;30836;48.906;9.140;2023-07-16T04:56:29;987.17;;;24.90;48.42
45071;BME280;30836;48.906;9.140;2023-07-16T04:57:29;987.29;;;24.81;48.23
45071;BME280;30836;48.906;9.140;2023-07-16T04:58:30;987.31;;;24.76;48.10
45071;BME280;30836;48.906;9.140;2023-07-16T04:59:30;987.27;;;24.73;48.22
45071;BME280;30836;48.906;9.140;2023-07-16T05:00:31;987.31;;;24.72;48.11
45071;BME280;30836;48.906;9.140;2023-07-16T05:01:32;987.27;;;24.75;48.15
45071;BME280;30836;48.906;9.140;2023-07-16T05:02:33;987.27;;;24.84;47.77
45071;BME280;30836;48.906;9.140;2023-07-16T05:03:33;987.19;;;24.99;47.15
45071;BME280;30836;48.906;9.140;2023-07-16T05:04:34;987.27;;;25.12;46.93
45071;BME280;30836;48.906;9.140;2023-07-16T05:05:35;987.19;;;25.16;46.99
45071;BME280;30836;48.906;9.140;2023-07-16T05:06:35;987.19;;;25.19;46.68
45071;BME280;30836;48.906;9.140;2023-07-16T05:07:35;987.19;;;25.26;46.39
45071;BME280;30836;48.906;9.140;2023-07-16T05:08:36;987.17;;;25.37;46.29
45071;BME280;30836;48.906;9.140;2023-07-16T05:09:36;987.13;;;25.46;46.29
45071;BME280;30836;48.906;9.140;2023-07-16T05:10:37;987.15;;;25.54;46.20
45071;BME280;30836;48.906;9.140;2023-07-16T05:11:37;987.15;;;25.60;46.12
45071;BME280;30836;48.906;9.140;2023-07-16T05:12:37;987.17;;;25.63;45.88
45071;BME280;30836;48.906;9.140;2023-07-16T05:13:38;987.27;;;25.62;45.99
45071;BME280;30836;48.906;9.140;2023-07-16T05:15:45;987.31;;;25.63;45.85
45071;BME280;30836;48.906;9.140;2023-07-16T05:16:46;987.31;;;25.69;45.89
45071;BME280;30836;48.906;9.140;2023-07-16T05:17:46;987.33;;;25.71;46.10
45071;BME280;30836;48.906;9.140;2023-07-16T05:18:47;987.35;;;25.70;46.21
45071;BME280;30836;48.906;9.140;2023-07-16T05:19:47;987.35;;;25.73;46.03
45071;BME280;30836;48.906;9.140;2023-07-16T05:20:48;987.39;;;25.80;45.90
45071;BME280;30836;48.906;9.140;2023-07-16T05:21:49;987.37;;;25.82;46.03
45071;BME280;30836;48.906;9.140;2023-07-16T05:22:50;987.33;;;25.83;46.15
45071;BME280;30836;48.906;9.140;2023-07-16T05:23:50;987.31;;;25.81;46.12
45071;BME280;30836;48.906;9.140;2023-07-16T05:24:51;987.37;;;25.76;46.23
45071;BME280;30836;48.906;9.140;2023-07-16T05:25:51;987.37;;;25.75;46.51
45071;BME280;30836;48.906;9.140;2023-07-16T05:26:52;987.37;;;25.80;46.23
45071;BME280;30836;48.906;9.140;2023-07-16T05:27:52;987.37;;;25.84;45.97
45071;BME280;30836;48.906;9.140;2023-07-16T05:28:53;987.33;;;25.87;46.03
45071;BME280;30836;48.906;9.140;2023-07-16T05:29:53;987.33;;;25.92;46.04
45071;BME280;30836;48.906;9.140;2023-07-16T05:30:57;987.31;;;25.96;45.84
45071;BME280;30836;48.906;9.140;2023-07-16T05:31:58;987.35;;;25.95;45.57
45071;BME280;30836;48.906;9.140;2023-07-16T05:32:59;987.37;;;25.89;45.53
45071;BME280;30836;48.906;9.140;2023-07-16T05:33:59;987.39;;;25.80;45.55
45071;BME280;30836;48.906;9.140;2023-07-16T05:35:00;987.37;;;25.74;45.54
45071;BME280;30836;48.906;9.140;2023-07-16T05:36:00;987.33;;;25.71;45.53
45071;BME280;30836;48.906;9.140;2023-07-16T05:37:01;987.35;;;25.74;45.42
45071;BME280;30836;48.906;9.140;2023-07-16T05:38:01;987.37;;;25.76;45.46
45071;BME280;30836;48.906;9.140;2023-07-16T05:39:02;987.39;;;25.76;45.51
45071;BME280;30836;48.906;9.140;2023-07-16T05:40:02;987.47;;;25.73;45.40
45071;BME280;30836;48.906;9.140;2023-07-16T05:41:03;987.45;;;25.71;45.49